sensor_id;sensor_type;location;lat;lon;timestamp;temperature;humidity
418;DHT22;49;48.530;9.200;2023-12-04T00:02:14;7.80;15.10
418;DHT22;49;48.530;9.200;2023-12-04T00:04:53;7.10;14.00
418;DHT22;49;48.530;9.200;2023-12-04T00:07:32;7.20;20.00
418;DHT22;49;48.530;9.200;2023-12-04T00:10:14;7.90;19.50
418;DHT22;49;48.530;9.200;2023-12-04T00:12:56;8.00;17.20
418;DHT22;49;48.530;9.200;2023-12-04T00:15:47;7.80;16.10
418;DHT22;49;48.530;9.200;2023-12-04T00:18:21;7.80;18.40
418;DHT22;49;48.530;9.200;2023-12-04T00:21:04;7.80;9.30
418;DHT22;49;48.530;9.200;2023-12-04T00:28:59;7.70;15.20
418;DHT22;49;48.530;9.200;2023-12-04T00:31:57;8.20;18.00
418;DHT22;49;48.530;9.200;2023-12-04T00:34:49;8.00;11.00
418;DHT22;49;48.530;9.200;2023-12-04T00:37:31;7.90;18.10
418;DHT22;49;48.530;9.200;2023-12-04T00:40:06;7.20;18.00
418;DHT22;49;48.530;9.200;2023-12-04T00:43:07;7.40;18.50
418;DHT22;49;48.530;9.200;2023-12-04T00:46:04;7.30;13.80
418;DHT22;49;48.530;9.200;2023-12-04T00:48:45;6.90;19.60
418;DHT22;49;48.530;9.200;2023-12-04T00:51:18;7.00;15.50
418;DHT22;49;48.530;9.200;2023-12-04T00:54:06;6.10;11.20
418;DHT22;49;48.530;9.200;2023-12-04T00:56:38;5.00;8.60
418;DHT22;49;48.530;9.200;2023-12-04T00:59:29;4.10;18.50
418;DHT22;49;48.530;9.200;2023-12-04T01:02:29;4.40;24.60
418;DHT22;49;48.530;9.200;2023-12-04T01:04:59;4.80;20.00
418;DHT22;49;48.530;9.200;2023-12-04T01:07:36;5.20;21.90
418;DHT22;49;48.530;9.200;2023-12-04T01:10:24;5.90;21.00
418;DHT22;49;48.530;9.200;2023-12-04T01:13:05;6.00;15.20
418;DHT22;49;48.530;9.200;2023-12-04T01:19:01;5.50;14.30
418;DHT22;49;48.530;9.200;2023-12-04T01:21:35;6.00;16.40
418;DHT22;49;48.530;9.200;2023-12-04T01:24:25;4.80;9.50
418;DHT22;49;48.530;9.200;2023-12-04T01:26:56;3.30;7.90
418;DHT22;49;48.530;9.200;2023-12-04T01:29:25;2.10;8.30
418;DHT22;49;48.530;9.200;2023-12-04T01:32:00;1.50;10.40
418;DHT22;49;48.530;9.200;2023-12-04T01:34:38;1.00;12.60
418;DHT22;49;48.530;9.200;2023-12-04T01:37:13;0.70;18.70
418;DHT22;49;48.530;9.200;2023-12-04T01:39:49;0.40;14.50
418;DHT22;49;48.530;9.200;2023-12-04T01:42:19;0.50;22.70
418;DHT22;49;48.530;9.200;2023-12-04T01:44:59;0.40;14.00
418;DHT22;49;48.530;9.200;2023-12-04T01:47:34;0.60;17.50
418;DHT22;49;48.530;9.200;2023-12-04T01:50:11;0.60;17.60
418;DHT22;49;48.530;9.200;2023-12-04T01:52:52;1.10;19.80
418;DHT22;49;48.530;9.200;2023-12-04T01:55:24;0.80;13.30
418;DHT22;49;48.530;9.200;2023-12-04T01:58:15;0.20;14.00
418;DHT22;49;48.530;9.200;2023-12-04T02:01:00;0.20;15.20
418;DHT22;49;48.530;9.200;2023-12-04T02:03:43;0.00;15.40
418;DHT22;49;48.530;9.200;2023-12-04T02:06:24;-0.10;15.80
418;DHT22;49;48.530;9.200;2023-12-04T02:08:54;-0.20;16.20
418;DHT22;49;48.530;9.200;2023-12-04T02:11:43;0.00;16.90
418;DHT22;49;48.530;9.200;2023-12-04T02:14:21;-0.10;17.10
418;DHT22;49;48.530;9.200;2023-12-04T02:17:13;0.70;27.30
418;DHT22;49;48.530;9.200;2023-12-04T03:42:37;-0.20;17.60
418;DHT22;49;48.530;9.200;2023-12-04T03:45:36;0.00;19.10
418;DHT22;49;48.530;9.200;2023-12-04T03:48:29;0.10;23.00
418;DHT22;49;48.530;9.200;2023-12-04T03:51:20;0.10;17.20
418;DHT22;49;48.530;9.200;2023-12-04T04:00:39;0.00;17.10
418;DHT22;49;48.530;9.200;2023-12-04T04:03:24;-0.30;17.00
418;DHT22;49;48.530;9.200;2023-12-04T04:06:08;0.00;23.60
418;DHT22;49;48.530;9.200;2023-12-04T04:08:53;0.00;19.00
418;DHT22;49;48.530;9.200;2023-12-04T04:11:35;-0.30;21.80
418;DHT22;49;48.530;9.200;2023-12-04T04:14:27;-0.40;21.20
418;DHT22;49;48.530;9.200;2023-12-04T04:20:35;0.00;31.00
418;DHT22;49;48.530;9.200;2023-12-04T04:23:28;-0.10;22.90
418;DHT22;49;48.530;9.200;2023-12-04T04:26:03;-0.30;23.40
418;DHT22;49;48.530;9.200;2023-12-04T05:20:54;0.30;30.20
418;DHT22;49;48.530;9.200;2023-12-04T05:23:42;0.00;25.10
418;DHT22;49;48.530;9.200;2023-12-04T05:26:28;0.20;25.40
418;DHT22;49;48.530;9.200;2023-12-04T05:29:21;0.20;23.10
418;DHT22;49;48.530;9.200;2023-12-04T05:32:19;0.40;23.50
418;DHT22;49;48.530;9.200;2023-12-04T05:35:04;0.40;23.50
418;DHT22;49;48.530;9.200;2023-12-04T06:35:13;2.60;23.20
418;DHT22;49;48.530;9.200;2023-12-04T06:37:43;2.20;19.00
418;DHT22;49;48.530;9.200;2023-12-04T06:40:19;2.70;20.80
418;DHT22;49;48.530;9.200;2023-12-04T06:43:03;2.40;22.00
418;DHT22;49;48.530;9.200;2023-12-04T06:45:45;2.30;17.60
418;DHT22;49;48.530;9.200;2023-12-04T07:06:48;3.40;22.80
418;DHT22;49;48.530;9.200;2023-12-04T07:13:12;3.10;15.60
418;DHT22;49;48.530;9.200;2023-12-04T07:16:20;2.90;26.70
418;DHT22;49;48.530;9.200;2023-12-04T07:19:13;2.90;15.00
418;DHT22;49;48.530;9.200;2023-12-04T07:25:12;3.00;16.40
418;DHT22;49;48.530;9.200;2023-12-04T07:27:51;2.70;16.90
418;DHT22;49;48.530;9.200;2023-12-04T07:31:02;2.90;16.20
418;DHT22;49;48.530;9.200;2023-12-04T07:38:59;3.20;19.20
418;DHT22;49;48.530;9.200;2023-12-04T08:21:32;3.70;19.00
418;DHT22;49;48.530;9.200;2023-12-04T08:24:16;3.10;22.30
418;DHT22;49;48.530;9.200;2023-12-04T08:27:26;3.50;18.50
418;DHT22;49;48.530;9.200;2023-12-04T09:15:53;7.20;19.50
418;DHT22;49;48.530;9.200;2023-12-04T10:06:09;7.40;15.50
418;DHT22;49;48.530;9.200;2023-12-04T10:08:42;7.20;12.90
418;DHT22;49;48.530;9.200;2023-12-04T10:11:28;7.60;16.20
418;DHT22;49;48.530;9.200;2023-12-04T10:18:06;6.80;16.30
418;DHT22;49;48.530;9.200;2023-12-04T13:20:16;9.20;15.10
418;DHT22;49;48.530;9.200;2023-12-04T13:22:57;9.50;13.60
418;DHT22;49;48.530;9.200;2023-12-04T13:25:41;10.00;10.00
418;DHT22;49;48.530;9.200;2023-12-04T13:28:12;9.40;11.40
418;DHT22;49;48.530;9.200;2023-12-04T13:30:54;9.50;11.40
418;DHT22;49;48.530;9.200;2023-12-04T13:33:38;9.20;10.00
418;DHT22;49;48.530;9.200;2023-12-04T13:36:21;9.20;11.20
418;DHT22;49;48.530;9.200;2023-12-04T13:39:20;9.40;13.50
418;DHT22;49;48.530;9.200;2023-12-04T13:42:02;9.30;14.20
418;DHT22;49;48.530;9.200;2023-12-04T13:44:49;9.20;15.80
418;DHT22;49;48.530;9.200;2023-12-04T13:47:17;9.20;12.80
418;DHT22;49;48.530;9.200;2023-12-04T13:49:46;8.80;13.40
418;DHT22;49;48.530;9.200;2023-12-04T13:52:29;9.20;15.50
418;DHT22;49;48.530;9.200;2023-12-04T13:55:00;9.40;15.80
418;DHT22;49;48.530;9.200;2023-12-04T13:57:43;9.20;10.50
418;DHT22;49;48.530;9.200;2023-12-04T14:00:28;8.90;14.60
418;DHT22;49;48.530;9.200;2023-12-04T14:02:56;9.30;17.30
418;DHT22;49;48.530;9.200;2023-12-04T14:05:29;9.80;15.50
418;DHT22;49;48.530;9.200;2023-12-04T14:08:04;9.70;14.70
418;DHT22;49;48.530;9.200;2023-12-04T14:10:37;9.00;10.60
418;DHT22;49;48.530;9.200;2023-12-04T14:13:06;9.40;12.00
418;DHT22;49;48.530;9.200;2023-12-04T14:15:39;9.30;16.20
418;DHT22;49;48.530;9.200;2023-12-04T14:18:08;9.10;15.80
418;DHT22;49;48.530;9.200;2023-12-04T14:20:39;8.90;11.10
418;DHT22;49;48.530;9.200;2023-12-04T14:26:09;8.70;15.00
418;DHT22;49;48.530;9.200;2023-12-04T14:28:42;9.10;17.20
418;DHT22;49;48.530;9.200;2023-12-04T14:31:12;9.40;15.30
418;DHT22;49;48.530;9.200;2023-12-04T14:33:46;9.60;15.80
418;DHT22;49;48.530;9.200;2023-12-04T14:36:15;9.90;14.40
418;DHT22;49;48.530;9.200;2023-12-04T14:38:42;10.00;16.20
418;DHT22;49;48.530;9.200;2023-12-04T14:41:12;9.90;13.50
418;DHT22;49;48.530;9.200;2023-12-04T14:43:48;9.80;17.60
418;DHT22;49;48.530;9.200;2023-12-04T14:46:22;10.20;13.90
418;DHT22;49;48.530;9.200;2023-12-04T14:48:52;10.20;15.30
418;DHT22;49;48.530;9.200;2023-12-04T14:51:30;10.30;13.50
418;DHT22;49;48.530;9.200;2023-12-04T14:53:57;9.60;11.50
418;DHT22;49;48.530;9.200;2023-12-04T14:56:49;9.70;14.70
418;DHT22;49;48.530;9.200;2023-12-04T14:59:39;9.40;18.60
418;DHT22;49;48.530;9.200;2023-12-04T15:02:20;9.20;12.20
418;DHT22;49;48.530;9.200;2023-12-04T15:05:44;9.10;15.70
418;DHT22;49;48.530;9.200;2023-12-04T15:08:56;9.20;19.90
418;DHT22;49;48.530;9.200;2023-12-04T15:11:40;9.00;14.90
418;DHT22;49;48.530;9.200;2023-12-04T15:14:36;9.30;16.40
418;DHT22;49;48.530;9.200;2023-12-04T15:17:10;8.80;13.80
418;DHT22;49;48.530;9.200;2023-12-04T15:19:44;9.30;17.50
418;DHT22;49;48.530;9.200;2023-12-04T15:22:33;9.40;18.20
418;DHT22;49;48.530;9.200;2023-12-04T15:25:00;9.60;14.60
418;DHT22;49;48.530;9.200;2023-12-04T15:27:29;9.40;16.70
418;DHT22;49;48.530;9.200;2023-12-04T15:29:56;9.40;15.90
418;DHT22;49;48.530;9.200;2023-12-04T15:32:22;9.30;17.50
418;DHT22;49;48.530;9.200;2023-12-04T15:34:50;9.80;15.80
418;DHT22;49;48.530;9.200;2023-12-04T15:37:19;9.90;17.10
418;DHT22;49;48.530;9.200;2023-12-04T15:39:46;9.90;12.10
418;DHT22;49;48.530;9.200;2023-12-04T15:42:18;9.90;17.00
418;DHT22;49;48.530;9.200;2023-12-04T15:44:44;10.20;16.10
418;DHT22;49;48.530;9.200;2023-12-04T15:47:12;10.10;15.50
418;DHT22;49;48.530;9.200;2023-12-04T15:49:38;9.80;13.40
418;DHT22;49;48.530;9.200;2023-12-04T15:55:23;9.40;17.70
418;DHT22;49;48.530;9.200;2023-12-04T15:57:51;9.40;17.40
418;DHT22;49;48.530;9.200;2023-12-04T16:00:24;9.60;18.60
418;DHT22;49;48.530;9.200;2023-12-04T16:02:52;9.70;17.60
418;DHT22;49;48.530;9.200;2023-12-04T16:05:22;9.70;18.50
418;DHT22;49;48.530;9.200;2023-12-04T16:07:57;10.00;17.90
418;DHT22;49;48.530;9.200;2023-12-04T16:10:29;10.10;15.50
418;DHT22;49;48.530;9.200;2023-12-04T16:12:57;9.90;17.10
418;DHT22;49;48.530;9.200;2023-12-04T16:15:39;9.60;16.30
418;DHT22;49;48.530;9.200;2023-12-04T16:18:07;9.30;18.30
418;DHT22;49;48.530;9.200;2023-12-04T16:20:38;9.30;17.30
418;DHT22;49;48.530;9.200;2023-12-04T16:23:07;9.40;16.00
418;DHT22;49;48.530;9.200;2023-12-04T16:25:37;9.40;16.50
418;DHT22;49;48.530;9.200;2023-12-04T16:28:04;9.60;17.50
418;DHT22;49;48.530;9.200;2023-12-04T16:30:46;9.40;13.70
418;DHT22;49;48.530;9.200;2023-12-04T16:33:14;9.50;20.80
418;DHT22;49;48.530;9.200;2023-12-04T16:35:59;9.40;19.40
418;DHT22;49;48.530;9.200;2023-12-04T16:38:28;9.70;17.20
418;DHT22;49;48.530;9.200;2023-12-04T16:40:59;9.60;17.60
418;DHT22;49;48.530;9.200;2023-12-04T16:43:26;9.40;17.40
418;DHT22;49;48.530;9.200;2023-12-04T16:45:57;9.00;19.10
418;DHT22;49;48.530;9.200;2023-12-04T16:48:27;9.40;21.20
418;DHT22;49;48.530;9.200;2023-12-04T16:50:55;9.50;16.20
418;DHT22;49;48.530;9.200;2023-12-04T16:53:26;9.80;19.30
418;DHT22;49;48.530;9.200;2023-12-04T16:55:53;9.90;16.30
418;DHT22;49;48.530;9.200;2023-12-04T16:58:23;9.90;19.30
418;DHT22;49;48.530;9.200;2023-12-04T17:00:50;9.70;19.50
418;DHT22;49;48.530;9.200;2023-12-04T17:03:18;10.00;16.20
418;DHT22;49;48.530;9.200;2023-12-04T17:05:45;10.10;17.70
418;DHT22;49;48.530;9.200;2023-12-04T17:08:13;10.10;18.20
418;DHT22;49;48.530;9.200;2023-12-04T17:10:54;10.30;13.80
418;DHT22;49;48.530;9.200;2023-12-04T17:13:58;10.00;20.10
418;DHT22;49;48.530;9.200;2023-12-04T17:16:29;9.70;15.30
418;DHT22;49;48.530;9.200;2023-12-04T17:18:58;9.90;17.20
418;DHT22;49;48.530;9.200;2023-12-04T17:21:25;9.80;16.10
418;DHT22;49;48.530;9.200;2023-12-04T17:23:52;10.40;18.60
418;DHT22;49;48.530;9.200;2023-12-04T17:26:20;10.70;17.50
418;DHT22;49;48.530;9.200;2023-12-04T17:28:55;11.00;17.20
418;DHT22;49;48.530;9.200;2023-12-04T17:31:22;10.50;16.80
418;DHT22;49;48.530;9.200;2023-12-04T17:33:50;10.30;16.70
418;DHT22;49;48.530;9.200;2023-12-04T17:36:17;10.20;15.90
418;DHT22;49;48.530;9.200;2023-12-04T17:38:46;10.20;17.10
418;DHT22;49;48.530;9.200;2023-12-04T17:41:13;10.40;16.00
418;DHT22;49;48.530;9.200;2023-12-04T17:43:41;10.30;17.60
418;DHT22;49;48.530;9.200;2023-12-04T17:46:09;10.50;17.40
418;DHT22;49;48.530;9.200;2023-12-04T17:48:37;10.60;17.50
418;DHT22;49;48.530;9.200;2023-12-04T17:51:05;10.50;14.80
418;DHT22;49;48.530;9.200;2023-12-04T17:53:32;10.60;17.10
418;DHT22;49;48.530;9.200;2023-12-04T17:56:00;10.90;15.40
418;DHT22;49;48.530;9.200;2023-12-04T17:58:28;11.00;16.00
418;DHT22;49;48.530;9.200;2023-12-04T18:00:55;11.10;16.20
418;DHT22;49;48.530;9.200;2023-12-04T18:03:24;11.30;15.00
418;DHT22;49;48.530;9.200;2023-12-04T18:05:51;11.10;16.10
418;DHT22;49;48.530;9.200;2023-12-04T18:08:18;11.30;16.20
418;DHT22;49;48.530;9.200;2023-12-04T18:10:45;11.40;15.50
418;DHT22;49;48.530;9.200;2023-12-04T18:13:13;11.30;14.80
418;DHT22;49;48.530;9.200;2023-12-04T18:15:40;11.20;16.00
418;DHT22;49;48.530;9.200;2023-12-04T18:18:07;11.10;13.00
418;DHT22;49;48.530;9.200;2023-12-04T18:20:35;11.00;16.20
418;DHT22;49;48.530;9.200;2023-12-04T18:23:02;10.60;15.50
418;DHT22;49;48.530;9.200;2023-12-04T18:25:31;10.10;14.30
418;DHT22;49;48.530;9.200;2023-12-04T18:27:59;9.80;14.60
418;DHT22;49;48.530;9.200;2023-12-04T18:30:28;9.60;17.50
418;DHT22;49;48.530;9.200;2023-12-04T18:32:55;9.50;20.00
418;DHT22;49;48.530;9.200;2023-12-04T18:35:24;9.50;16.80
418;DHT22;49;48.530;9.200;2023-12-04T18:37:58;9.20;19.40
418;DHT22;49;48.530;9.200;2023-12-04T18:40:29;8.90;20.40
418;DHT22;49;48.530;9.200;2023-12-04T18:42:57;8.70;20.10
418;DHT22;49;48.530;9.200;2023-12-04T18:45:26;8.80;21.20
418;DHT22;49;48.530;9.200;2023-12-04T18:47:58;8.80;20.90
418;DHT22;49;48.530;9.200;2023-12-04T18:50:29;8.60;23.00
418;DHT22;49;48.530;9.200;2023-12-04T18:53:00;9.10;21.50
418;DHT22;49;48.530;9.200;2023-12-04T18:55:29;9.10;20.80
418;DHT22;49;48.530;9.200;2023-12-04T18:57:56;9.20;18.30
418;DHT22;49;48.530;9.200;2023-12-04T19:00:23;9.10;20.10
418;DHT22;49;48.530;9.200;2023-12-04T19:02:51;9.00;18.50
418;DHT22;49;48.530;9.200;2023-12-04T19:05:18;9.40;20.20
418;DHT22;49;48.530;9.200;2023-12-04T19:07:45;9.40;19.60
418;DHT22;49;48.530;9.200;2023-12-04T19:10:14;9.70;16.60
418;DHT22;49;48.530;9.200;2023-12-04T19:12:41;9.80;18.70
418;DHT22;49;48.530;9.200;2023-12-04T19:15:09;9.90;17.70
418;DHT22;49;48.530;9.200;2023-12-04T19:17:37;9.90;17.70
418;DHT22;49;48.530;9.200;2023-12-04T19:20:08;10.30;17.50
418;DHT22;49;48.530;9.200;2023-12-04T19:22:51;10.40;16.40
418;DHT22;49;48.530;9.200;2023-12-04T19:25:21;10.50;16.60
418;DHT22;49;48.530;9.200;2023-12-04T19:27:49;10.60;15.80
418;DHT22;49;48.530;9.200;2023-12-04T19:30:16;10.20;14.20
418;DHT22;49;48.530;9.200;2023-12-04T19:32:43;10.10;18.10
418;DHT22;49;48.530;9.200;2023-12-04T19:35:13;10.30;17.20
418;DHT22;49;48.530;9.200;2023-12-04T19:37:39;10.50;18.50
418;DHT22;49;48.530;9.200;2023-12-04T19:40:08;10.50;16.10
418;DHT22;49;48.530;9.200;2023-12-04T19:42:39;10.50;17.40
418;DHT22;49;48.530;9.200;2023-12-04T19:45:07;10.70;17.10
418;DHT22;49;48.530;9.200;2023-12-04T19:47:34;10.30;14.00
418;DHT22;49;48.530;9.200;2023-12-04T19:50:01;9.60;15.20
418;DHT22;49;48.530;9.200;2023-12-04T19:52:28;9.30;19.80
418;DHT22;49;48.530;9.200;2023-12-04T19:54:55;8.90;17.10
418;DHT22;49;48.530;9.200;2023-12-04T19:57:22;9.20;21.10
418;DHT22;49;48.530;9.200;2023-12-04T19:59:51;8.60;16.70
418;DHT22;49;48.530;9.200;2023-12-04T20:02:18;8.60;22.70
418;DHT22;49;48.530;9.200;2023-12-04T20:04:45;8.50;16.80
418;DHT22;49;48.530;9.200;2023-12-04T20:07:12;8.60;25.40
418;DHT22;49;48.530;9.200;2023-12-04T20:09:39;8.50;18.70
418;DHT22;49;48.530;9.200;2023-12-04T20:12:07;8.70;19.70
418;DHT22;49;48.530;9.200;2023-12-04T20:14:34;9.10;25.10
418;DHT22;49;48.530;9.200;2023-12-04T20:17:03;9.40;18.40
418;DHT22;49;48.530;9.200;2023-12-04T20:19:30;9.60;24.00
418;DHT22;49;48.530;9.200;2023-12-04T20:21:57;9.70;23.50
418;DHT22;49;48.530;9.200;2023-12-04T20:24:24;9.80;21.40
418;DHT22;49;48.530;9.200;2023-12-04T20:26:51;9.70;18.50
418;DHT22;49;48.530;9.200;2023-12-04T20:29:18;9.50;18.70
418;DHT22;49;48.530;9.200;2023-12-04T20:31:46;9.60;20.40
418;DHT22;49;48.530;9.200;2023-12-04T20:34:14;9.60;18.00
418;DHT22;49;48.530;9.200;2023-12-04T20:36:41;9.30;18.40
418;DHT22;49;48.530;9.200;2023-12-04T20:39:08;9.50;21.60
418;DHT22;49;48.530;9.200;2023-12-04T20:41:36;9.50;17.50
418;DHT22;49;48.530;9.200;2023-12-04T20:44:03;9.40;17.40
418;DHT22;49;48.530;9.200;2023-12-04T20:46:31;9.40;16.80
418;DHT22;49;48.530;9.200;2023-12-04T20:48:58;9.30;18.00
418;DHT22;49;48.530;9.200;2023-12-04T20:51:30;9.60;21.80
418;DHT22;49;48.530;9.200;2023-12-04T20:53:57;9.70;18.00
418;DHT22;49;48.530;9.200;2023-12-04T20:56:23;9.30;17.30
418;DHT22;49;48.530;9.200;2023-12-04T20:58:52;9.30;16.30
418;DHT22;49;48.530;9.200;2023-12-04T21:01:19;9.20;17.00
418;DHT22;49;48.530;9.200;2023-12-04T21:03:47;9.30;23.20
418;DHT22;49;48.530;9.200;2023-12-04T21:06:14;9.80;20.40
418;DHT22;49;48.530;9.200;2023-12-04T21:08:42;9.70;13.90
418;DHT22;49;48.530;9.200;2023-12-04T21:11:10;9.80;23.10
418;DHT22;49;48.530;9.200;2023-12-04T21:13:37;10.30;19.10
418;DHT22;49;48.530;9.200;2023-12-04T21:16:05;10.30;12.90
418;DHT22;49;48.530;9.200;2023-12-04T21:18:32;10.40;17.70
418;DHT22;49;48.530;9.200;2023-12-04T21:20:59;10.40;16.10
418;DHT22;49;48.530;9.200;2023-12-04T21:23:25;10.60;17.30
418;DHT22;49;48.530;9.200;2023-12-04T21:25:54;10.70;14.20
418;DHT22;49;48.530;9.200;2023-12-04T21:28:22;10.70;16.30
418;DHT22;49;48.530;9.200;2023-12-04T21:30:49;10.70;14.90
418;DHT22;49;48.530;9.200;2023-12-04T21:33:16;10.90;15.80
418;DHT22;49;48.530;9.200;2023-12-04T21:35:43;11.00;17.20
418;DHT22;49;48.530;9.200;2023-12-04T21:38:10;10.90;16.10
418;DHT22;49;48.530;9.200;2023-12-04T21:40:37;10.80;15.60
418;DHT22;49;48.530;9.200;2023-12-04T21:43:06;10.60;16.20
418;DHT22;49;48.530;9.200;2023-12-04T21:45:33;10.30;16.10
418;DHT22;49;48.530;9.200;2023-12-04T21:48:00;10.30;16.60
418;DHT22;49;48.530;9.200;2023-12-04T21:50:27;10.30;16.50
418;DHT22;49;48.530;9.200;2023-12-04T21:52:54;10.50;19.50
418;DHT22;49;48.530;9.200;2023-12-04T21:55:20;10.80;18.00
418;DHT22;49;48.530;9.200;2023-12-04T21:57:47;11.00;14.10
418;DHT22;49;48.530;9.200;2023-12-04T22:00:16;11.00;16.70
418;DHT22;49;48.530;9.200;2023-12-04T22:02:46;10.90;16.80
418;DHT22;49;48.530;9.200;2023-12-04T22:05:13;11.00;17.70
418;DHT22;49;48.530;9.200;2023-12-04T22:07:39;10.90;17.20
418;DHT22;49;48.530;9.200;2023-12-04T22:10:07;10.80;16.50
418;DHT22;49;48.530;9.200;2023-12-04T22:12:34;10.70;16.00
418;DHT22;49;48.530;9.200;2023-12-04T22:15:01;10.70;17.50
418;DHT22;49;48.530;9.200;2023-12-04T22:17:30;10.70;18.50
418;DHT22;49;48.530;9.200;2023-12-04T22:19:56;10.60;18.90
418;DHT22;49;48.530;9.200;2023-12-04T22:22:23;10.60;17.70
418;DHT22;49;48.530;9.200;2023-12-04T22:24:51;11.00;18.70
418;DHT22;49;48.530;9.200;2023-12-04T22:27:17;11.30;17.90
418;DHT22;49;48.530;9.200;2023-12-04T22:29:44;11.60;16.00
418;DHT22;49;48.530;9.200;2023-12-04T22:32:11;11.50;16.20
418;DHT22;49;48.530;9.200;2023-12-04T22:34:40;11.10;12.50
418;DHT22;49;48.530;9.200;2023-12-04T22:37:07;10.40;13.90
418;DHT22;49;48.530;9.200;2023-12-04T22:39:33;9.80;18.50
418;DHT22;49;48.530;9.200;2023-12-04T22:42:00;9.30;17.30
418;DHT22;49;48.530;9.200;2023-12-04T22:44:27;9.10;22.50
418;DHT22;49;48.530;9.200;2023-12-04T22:46:54;9.00;22.80
418;DHT22;49;48.530;9.200;2023-12-04T22:49:21;8.80;23.20
418;DHT22;49;48.530;9.200;2023-12-04T22:51:49;8.70;22.20
418;DHT22;49;48.530;9.200;2023-12-04T22:54:16;8.70;23.60
418;DHT22;49;48.530;9.200;2023-12-04T22:56:43;8.90;24.10
418;DHT22;49;48.530;9.200;2023-12-04T22:59:10;9.00;23.40
418;DHT22;49;48.530;9.200;2023-12-04T23:01:36;8.90;24.70
418;DHT22;49;48.530;9.200;2023-12-04T23:04:03;8.80;25.80
418;DHT22;49;48.530;9.200;2023-12-04T23:06:30;8.80;25.80
418;DHT22;49;48.530;9.200;2023-12-04T23:08:59;9.10;24.20
418;DHT22;49;48.530;9.200;2023-12-04T23:11:26;9.40;26.60
418;DHT22;49;48.530;9.200;2023-12-04T23:13:52;9.40;21.70
418;DHT22;49;48.530;9.200;2023-12-04T23:16:19;9.40;23.30
418;DHT22;49;48.530;9.200;2023-12-04T23:18:47;9.20;23.10
418;DHT22;49;48.530;9.200;2023-12-04T23:21:14;9.20;22.90
418;DHT22;49;48.530;9.200;2023-12-04T23:23:40;9.10;24.50
418;DHT22;49;48.530;9.200;2023-12-04T23:26:10;9.20;23.10
418;DHT22;49;48.530;9.200;2023-12-04T23:28:37;9.30;24.20
418;DHT22;49;48.530;9.200;2023-12-04T23:31:04;9.10;21.30
418;DHT22;49;48.530;9.200;2023-12-04T23:33:31;9.30;26.20
418;DHT22;49;48.530;9.200;2023-12-04T23:35:58;9.10;22.80
418;DHT22;49;48.530;9.200;2023-12-04T23:38:25;9.20;22.20
418;DHT22;49;48.530;9.200;2023-12-04T23:40:52;9.10;22.50
418;DHT22;49;48.530;9.200;2023-12-04T23:43:20;8.60;23.40
418;DHT22;49;48.530;9.200;2023-12-04T23:45:47;8.60;23.90
418;DHT22;49;48.530;9.200;2023-12-04T23:48:13;8.70;23.80
418;DHT22;49;48.530;9.200;2023-12-04T23:50:40;8.50;23.80
418;DHT22;49;48.530;9.200;2023-12-04T23:53:07;8.80;24.80
418;DHT22;49;48.530;9.200;2023-12-04T23:55:34;8.90;25.00
418;DHT22;49;48.530;9.200;2023-12-04T23:58:01;9.10;26.40
